Latest Coastal Weather Observations for Port Fairy

IDV60701

Issued at 10:15 pm EST Monday 21 April 2014 (issued every 10 minutes, with the page automatically refreshed every 10 minutes)

About coastal observations | Map of coastal stations | Coastal observations for VIC | Marine services | Other Formats
Station Details ID: 090175 Name: PORT FAIRY AWS Lat: -38.39 Lon: 142.23 Height: 10.0 m
Data from the previous 72 hours. | See also: Recent months at Port Fairy
Date/Time
EST
Temp

°C
Wind Pressure Rain
since 9am
mm
Weather Cloud Vis
km
Sea
Height
m
Swell
Dir
 
Speed
knots
Gust
knots
hPa Trend Height
m
Period
s
Dir
21/10:00pm 15.8 N 12 18 1010.6 - 4.8 - - - - - - -
21/09:30pm 16.1 N 12 17 1011.4 - 4.0 - - - - - - -
21/09:00pm 16.3 NNW 8 11 1011.9 - 3.0 Rain - - - - - -
21/08:30pm 16.3 NW 8 16 1011.9 - 2.4 - - - - - - -
21/08:00pm 17.1 WNW 9 16 1011.6 - 1.0 - - - - - - -
21/07:30pm 20.9 NW 7 10 1010.8 - 0.2 - - - - - - -
21/07:00pm 21.0 NNW 8 13 1010.2 - 0.2 - - - - - - -
21/06:30pm 21.1 N 8 12 1009.6 - 0.2 - - - - - - -
21/06:00pm 21.3 N 10 13 1009.2 - 0.2 - - - - - - -
21/05:30pm 21.4 N 10 14 1009.0 - 0.2 - - - - - - -
21/05:00pm 21.7 N 10 17 1009.1 - 0.2 - - - - - - -
21/04:30pm 22.1 N 13 22 1009.1 - 0.2 - - - - - - -
21/04:14pm 22.2 N 15 26 1009.0 - 0.2 - - - - - - -
21/04:00pm 22.1 N 14 22 1009.1 - 0.2 - - - - - - -
21/03:30pm 22.1 N 15 25 1009.3 - 0.2 - - - - - - -
21/03:28pm 22.1 N 15 25 1009.3 - 0.2 - - - - - - -
21/03:00pm 22.0 N 13 23 1009.5 - 0.2 - - - - - - -
21/02:30pm 21.5 NNW 13 21 1009.7 - 0.2 - - - - - - -
21/02:11pm 21.3 N 15 25 1010.0 - 0.2 - - - - - - -
21/02:00pm 21.2 N 13 25 1010.4 - 0.2 - - - - - - -
21/01:31pm 21.5 N 16 28 1010.5 - 0.2 - - - - - - -
21/01:30pm 21.4 N 15 25 1010.6 - 0.2 - - - - - - -
21/01:12pm 20.5 N 15 25 1011.1 - 0.2 - - - - - - -
21/01:00pm 19.8 N 11 19 1011.7 - 0.2 - - - - - - -
21/12:30pm 19.4 N 10 15 1012.4 - 0.2 - - - - - - -
21/12:00pm 18.5 N 6 9 1013.4 - 0.2 - - - - - - -
21/11:30am 18.0 NNW 7 13 1014.5 - 0.2 - - - - - - -
21/11:00am 18.1 N 10 17 1014.0 - 0.2 - - - - - - -
21/10:30am 18.2 N 12 18 1014.0 - 0.2 - - - - - - -
21/10:00am 17.0 N 8 13 1014.4 - 0.2 - - - - - - -
21/09:30am 14.9 N 6 10 1015.3 - 0.2 - - - - - - -
21/09:00am 13.8 N 3 5 1015.7 - 0.6 - - - - - - -
21/08:30am 13.1 N 3 4 1015.9 - 0.6 - - - - - - -
21/08:00am 12.7 N 3 5 1016.2 - 0.6 - - - - - - -
21/07:30am 12.3 N 3 4 1016.2 - 0.6 - - - - - - -
21/07:00am 12.2 N 3 4 1016.2 - 0.6 - - - - - - -
21/06:30am 12.0 N 4 5 1016.2 - 0.6 - - - - - - -
21/06:00am 12.1 N 4 5 1015.9 - 0.6 - - - - - - -
21/05:30am 12.0 NNW 3 5 1016.2 - 0.6 - - - - - - -
21/05:00am 12.1 NNW 4 6 1016.0 - 0.6 - - - - - - -
21/04:30am 11.9 NNW 5 9 1015.9 - 0.6 - - - - - - -
21/04:00am 12.0 N 6 8 1015.5 - 0.6 - - - - - - -
21/03:30am 11.9 N 5 7 1015.5 - 0.6 - - - - - - -
21/03:00am 12.1 N 4 6 1015.6 - 0.6 - - - - - - -
21/02:30am 12.1 N 4 6 1015.9 - 0.6 - - - - - - -
21/02:00am 11.9 N 4 5 1016.2 - 0.6 - - - - - - -
21/01:30am 11.9 N 4 6 1016.3 - 0.6 - - - - - - -
21/01:00am 12.3 NNW 4 6 1016.3 - 0.6 - - - - - - -
21/12:30am 12.3 NNW 6 8 1016.1 - 0.6 - - - - - - -
21/12:00am 12.5 N 5 7 1016.1 - 0.6 - - - - - - -
 
Date/Time
EST
Temp

°C
Wind Pressure Rain
since 9am
mm
Weather Cloud Vis
km
Sea
Height
m
Swell
Dir
 
Speed
knots
Gust
knots
hPa Trend Height
m
Period
s
Dir
20/11:30pm 12.9 NNW 4 6 1016.3 - 0.6 - - - - - - -
20/11:00pm 13.3 NNW 4 6 1016.5 - 0.6 - - - - - - -
20/10:30pm 13.7 NNW 3 4 1016.7 - 0.6 - - - - - - -
20/10:00pm 14.0 NNW 2 3 1016.7 - 0.6 - - - - - - -
20/09:30pm 14.4 NNW 3 4 1016.7 - 0.6 - - - - - - -
20/09:00pm 14.5 N 3 5 1016.6 - 0.6 Recent precip. - - - - - -
20/08:30pm 15.2 N 3 4 1016.5 - 0.0 - - - - - - -
20/08:00pm 15.3 CALM 0 1 1016.3 - 0.0 - - - - - - -
20/07:30pm 15.2 CALM 0 0 1016.1 - 0.0 - - - - - - -
20/07:00pm 15.3 CALM 0 0 1016.0 - 0.0 - - - - - - -
20/06:30pm 15.7 NNW 1 2 1015.9 - 0.0 - - - - - - -
20/06:00pm 15.9 NW 2 2 1015.7 - 0.0 - - - - - - -
20/05:30pm 16.2 NW 2 4 1015.4 - 0.0 - - - - - - -
20/05:00pm 16.6 NW 4 7 1015.3 - 0.0 - - - - - - -
20/04:30pm 17.8 WNW 5 8 1015.4 - 0.0 - - - - - - -
20/04:00pm 17.1 NW 7 11 1015.5 - 0.0 - - - - - - -
20/03:30pm 16.4 WNW 7 13 1015.7 - 0.0 - - - - - - -
20/03:00pm 16.1 W 12 19 1015.6 - 0.0 - - - - - - -
20/02:30pm 17.8 W 12 19 1015.3 - 0.0 - - - - - - -
20/02:00pm 18.3 W 12 21 1015.0 - 0.0 - - - - - - -
20/01:30pm 19.5 W 11 16 1015.1 - 0.0 - - - - - - -
20/01:00pm 18.4 W 9 16 1015.4 - 0.0 - - - - - - -
20/12:30pm 17.9 WNW 11 19 1015.8 - 0.0 - - - - - - -
20/12:00pm 17.7 NW 10 17 1016.2 - 0.0 - - - - - - -
20/11:30am 18.4 NW 10 16 1016.5 - 0.0 - - - - - - -
20/11:00am 16.6 NW 10 18 1016.6 - 0.0 - - - - - - -
20/10:30am 16.7 NW 9 15 1016.8 - 0.0 - - - - - - -
20/10:00am 15.3 NNW 10 15 1016.9 - 0.0 - - - - - - -
20/09:30am 14.1 NNW 8 12 1017.0 - 0.0 - - - - - - -
20/09:00am 13.4 NNW 8 15 1017.0 - 0.0 - - - - - - -
20/08:30am 12.8 NNW 5 10 1016.9 - 0.0 - - - - - - -
20/08:00am 11.1 NNW 3 4 1016.8 - 0.0 - - - - - - -
20/07:30am 10.1 NNW 5 7 1016.6 - 0.0 - - - - - - -
20/07:00am 10.6 NNW 5 7 1016.5 - 0.0 - - - - - - -
20/06:30am 10.8 NNW 7 10 1016.3 - 0.0 - - - - - - -
20/06:00am 10.4 NNW 4 7 1016.2 - 0.0 - - - - - - -
20/05:30am 10.3 NNW 4 7 1016.0 - 0.0 - - - - - - -
20/05:00am 10.2 N 4 6 1015.9 - 0.0 - - - - - - -
20/04:30am 10.4 N 5 6 1015.9 - 0.0 - - - - - - -
20/04:00am 10.5 N 4 7 1015.9 - 0.0 - - - - - - -
20/03:30am 10.5 NNW 4 6 1016.2 - 0.0 - - - - - - -
20/03:00am 10.5 NNW 4 6 1016.2 - 0.0 - - - - - - -
20/02:30am 10.5 N 5 7 1016.3 - 0.0 - - - - - - -
20/02:00am 10.3 NNW 3 4 1016.7 - 0.0 - - - - - - -
20/01:30am 10.5 N 4 7 1016.8 - 0.0 - - - - - - -
20/01:00am 10.5 N 4 6 1017.0 - 0.0 - - - - - - -
20/12:30am 10.7 N 5 7 1017.2 - 0.0 - - - - - - -
20/12:00am 10.6 N 5 7 1017.4 - 0.0 - - - - - - -
 
Date/Time
EST
Temp

°C
Wind Pressure Rain
since 9am
mm
Weather Cloud Vis
km
Sea
Height
m
Swell
Dir
 
Speed
knots
Gust
knots
hPa Trend Height
m
Period
s
Dir
19/11:30pm 10.5 NNW 4 7 1017.7 - 0.0 - - - - - - -
19/11:00pm 10.4 N 4 5 1017.9 - 0.0 - - - - - - -
19/10:30pm 10.9 N 4 6 1018.2 - 0.0 - - - - - - -
19/10:00pm 11.0 NNW 4 7 1018.6 - 0.0 - - - - - - -
19/09:30pm 11.0 NNW 4 6 1018.6 - 0.0 - - - - - - -
19/09:00pm 11.2 N 4 5 1018.6 - 0.0 - - - - - - -
19/08:30pm 11.3 N 4 5 1018.8 - 0.0 - - - - - - -
19/08:00pm 11.4 NNW 5 7 1018.9 - 0.0 - - - - - - -
19/07:30pm 11.6 N 2 4 1019.0 - 0.0 - - - - - - -
19/07:00pm 12.2 NW 5 8 1019.1 - 0.0 - - - - - - -
19/06:30pm 12.5 NNW 4 6 1018.8 - 0.0 - - - - - - -
19/06:00pm 12.8 WNW 3 7 1018.9 - 0.0 - - - - - - -
19/05:30pm 13.3 W 8 12 1018.9 - 0.0 - - - - - - -
19/05:00pm 13.9 W 4 11 1018.9 - 0.0 - - - - - - -
19/04:30pm 14.4 W 5 10 1018.9 - 0.0 - - - - - - -
19/04:00pm 14.5 W 6 9 1019.0 - 0.0 - - - - - - -
19/03:30pm 15.1 WSW 7 10 1019.0 - 0.0 - - - - - - -
19/03:00pm 15.0 WSW 7 10 1019.2 - 0.0 - - - - - - -
19/02:30pm 15.3 WSW 8 11 1019.4 - 0.0 - - - - - - -
19/02:00pm 15.2 WSW 7 10 1019.7 - 0.0 - - - - - - -
19/01:30pm 15.4 WSW 7 10 1020.0 - 0.0 - - - - - - -
19/01:00pm 15.2 WSW 8 11 1020.3 - 0.0 - - - - - - -
19/12:30pm 16.3 WSW 7 10 1020.7 - 0.0 - - - - - - -
19/12:00pm 15.7 WSW 6 10 1021.1 - 0.0 - - - - - - -
19/11:30am 14.0 W 8 13 1021.4 - 0.0 - - - - - - -
19/11:00am 14.6 WSW 5 7 1021.5 - 0.0 - - - - - - -
19/10:30am 13.3 W 11 14 1021.7 - 0.0 - - - - - - -
19/10:00am 14.8 WSW 7 10 1021.7 - 0.0 - - - - - - -
19/09:30am 14.2 W 5 9 1021.8 - 0.0 - - - - - - -
19/09:00am 13.8 SW 8 12 1021.7 - 0.2 - - - - - - -
19/08:30am 13.7 SSW 7 10 1021.5 - 0.2 - - - - - - -
19/08:00am 13.5 SW 7 11 1021.2 - 0.2 - - - - - - -
19/07:30am 13.1 S 8 11 1020.9 - 0.2 - - - - - - -
19/07:00am 12.2 WSW 5 9 1020.8 - 0.2 - - - - - - -
19/06:30am 12.0 S 3 5 1020.6 - 0.2 - - - - - - -
19/06:00am 12.8 SSE 12 15 1020.5 - 0.2 - - - - - - -
19/05:30am 13.0 E 5 8 1020.3 - 0.2 - - - - - - -
19/05:00am 13.0 SSW 8 14 1020.3 - 0.2 - - - - - - -
19/04:30am 12.9 S 7 11 1020.2 - 0.2 - - - - - - -
19/04:00am 13.0 SSE 10 14 1020.3 - 0.2 - - - - - - -
19/03:30am 13.2 S 8 12 1020.3 - 0.2 - - - - - - -
19/03:00am 11.7 W 11 16 1020.7 - 0.2 Recent precip. - - - - - -
19/02:30am 13.8 SW 13 23 1020.8 - 0.0 - - - - - - -
19/02:00am 14.2 SSW 11 17 1020.9 - 0.0 - - - - - - -
19/01:30am 13.9 SSE 11 15 1020.9 - 0.0 - - - - - - -
19/01:00am 13.9 S 11 17 1021.1 - 0.0 - - - - - - -
19/12:30am 14.2 S 11 14 1021.0 - 0.0 - - - - - - -
19/12:00am 14.4 SSW 12 17 1021.1 - 0.0 - - - - - - -
 
Date/Time
EST
Temp

°C
Wind Pressure Rain
since 9am
mm
Weather Cloud Vis
km
Sea
Height
m
Swell
Dir
 
Speed
knots
Gust
knots
hPa Trend Height
m
Period
s
Dir
18/11:30pm 14.1 S 11 17 1021.2 - 0.0 - - - - - - -
18/11:00pm 14.1 S 10 13 1021.3 - 0.0 - - - - - - -
18/10:30pm 14.2 SSW 10 14 1021.5 - 0.0 - - - - - - -

Other Formats:

Comma delimited format used in spreadsheet applications
http://www.bom.gov.au/fwo/IDV60701/IDV60701.94830.axf

JavaScript Object Notation format (JSON) in row-major order
http://www.bom.gov.au/fwo/IDV60701/IDV60701.94830.json